Time;durP1;ratioP1;P1;durP2;ratioP2;P2;SDS_P1;SDS_P2;PMS_P1;PMS_P2;Temp;Humidity;BMP_temperature;BMP_pressure;BME280_temperature;BME280_humidity;BME280_pressure;Samples;Min_cycle;Max_cycle;Signal;HPM_P1;HPM_P2
2023/12/05 00:00:57;;;;;;;33.63;27.25;;;6.40;99.60;;;;;;5062531;28;20034;-83
2023/12/05 00:03:22;;;;;;;35.13;29.17;;;6.40;99.60;;;;;;5058037;28;20018;-85
2023/12/05 00:05:48;;;;;;;36.97;30.60;;;6.40;99.60;;;;;;5041928;28;20029;-79
2023/12/05 00:08:15;;;;;;;38.83;31.90;;;6.40;99.70;;;;;;5032090;28;20413;-79
2023/12/05 00:10:41;;;;;;;41.53;31.58;;;6.40;99.70;;;;;;5038618;28;20034;-82
2023/12/05 00:13:07;;;;;;;41.95;32.67;;;6.30;99.70;;;;;;5038157;28;20221;-82
2023/12/05 00:15:33;;;;;;;44.72;34.75;;;6.30;99.70;;;;;;5037213;28;20365;-79
2023/12/05 00:17:59;;;;;;;44.97;35.00;;;6.30;99.70;;;;;;5032588;28;20020;-83
2023/12/05 00:20:24;;;;;;;46.22;36.50;;;6.20;99.70;;;;;;5033309;28;20229;-81
2023/12/05 00:22:50;;;;;;;46.47;36.67;;;6.10;99.70;;;;;;5038150;28;20029;-79
2023/12/05 00:25:16;;;;;;;50.13;38.65;;;6.10;99.80;;;;;;5030029;28;20063;-81
2023/12/05 00:27:42;;;;;;;52.80;38.58;;;6.10;99.80;;;;;;5035691;28;20029;-81
2023/12/05 00:30:08;;;;;;;51.55;39.17;;;6.10;99.90;;;;;;5035633;28;20486;-83
2023/12/05 00:32:33;;;;;;;51.80;38.53;;;6.10;99.90;;;;;;5034782;28;20458;-82
2023/12/05 00:34:59;;;;;;;54.60;39.60;;;6.00;99.90;;;;;;5043030;28;20035;-80
2023/12/05 00:37:24;;;;;;;56.58;41.53;;;6.00;99.90;;;;;;5033438;28;20032;-82
2023/12/05 00:39:50;;;;;;;57.33;41.42;;;6.00;99.90;;;;;;5033030;28;20094;-80
2023/12/05 00:42:16;;;;;;;56.50;41.20;;;5.90;99.90;;;;;;5036919;28;20009;-81
2023/12/05 00:44:41;;;;;;;53.58;39.85;;;5.90;99.90;;;;;;5034690;28;20075;-83
2023/12/05 00:47:07;;;;;;;52.95;40.40;;;6.00;99.90;;;;;;5038912;28;20021;-81
2023/12/05 00:49:34;;;;;;;55.17;39.17;;;6.00;99.90;;;;;;5034200;28;20033;-82
2023/12/05 00:52:00;;;;;;;51.22;38.78;;;6.00;99.90;;;;;;5038586;28;20092;-81
2023/12/05 00:54:25;;;;;;;54.40;40.55;;;6.00;99.90;;;;;;5035753;28;20138;-84
2023/12/05 00:56:51;;;;;;;51.40;39.17;;;6.00;99.90;;;;;;5039473;28;20056;-81
2023/12/05 00:59:17;;;;;;;53.28;38.22;;;6.00;99.90;;;;;;5042652;28;20603;-82
2023/12/05 01:01:42;;;;;;;59.42;40.00;;;6.00;99.90;;;;;;5033459;28;20082;-81
2023/12/05 01:04:08;;;;;;;53.95;39.22;;;6.00;99.90;;;;;;5038912;28;20021;-81
2023/12/05 01:06:34;;;;;;;55.55;39.92;;;6.00;99.90;;;;;;5036575;28;20501;-81
2023/12/05 01:08:59;;;;;;;57.30;39.67;;;6.00;99.90;;;;;;5042809;28;20021;-83
2023/12/05 01:11:25;;;;;;;60.05;41.20;;;6.00;99.90;;;;;;5035946;28;20107;-81
2023/12/05 01:13:51;;;;;;;51.95;39.10;;;6.00;99.90;;;;;;5041483;28;20017;-80
2023/12/05 01:16:16;;;;;;;56.00;39.25;;;6.00;99.90;;;;;;5038780;28;20350;-80
2023/12/05 01:18:42;;;;;;;51.47;37.72;;;6.00;99.90;;;;;;5029930;28;20100;-82
2023/12/05 01:21:08;;;;;;;54.13;38.78;;;6.00;99.90;;;;;;5038650;28;20029;-83
2023/12/05 01:23:33;;;;;;;58.33;40.92;;;6.00;99.90;;;;;;5033268;28;20116;-80
2023/12/05 01:25:59;;;;;;;53.85;39.22;;;6.00;99.90;;;;;;5033928;28;20511;-80
2023/12/05 01:28:25;;;;;;;51.85;37.47;;;6.00;99.90;;;;;;5035967;28;20025;-80
2023/12/05 01:30:50;;;;;;;53.83;38.17;;;6.00;99.90;;;;;;5038066;28;20416;-79
2023/12/05 01:33:16;;;;;;;56.25;39.90;;;5.90;99.90;;;;;;5038287;28;20034;-81
2023/12/05 01:35:42;;;;;;;54.63;39.20;;;5.90;99.90;;;;;;5034476;28;20037;-79
2023/12/05 01:38:08;;;;;;;54.65;39.08;;;5.80;99.90;;;;;;5034849;28;20496;-80
2023/12/05 01:40:33;;;;;;;56.83;40.10;;;5.90;99.90;;;;;;5031518;28;20040;-83
2023/12/05 01:42:59;;;;;;;56.78;40.67;;;5.90;99.90;;;;;;5039755;28;20426;-79
2023/12/05 01:45:25;;;;;;;57.80;39.45;;;5.90;99.90;;;;;;5036856;28;20076;-80
2023/12/05 01:47:50;;;;;;;55.65;38.60;;;5.80;99.90;;;;;;5036495;28;20021;-81
2023/12/05 01:50:25;;;;;;;59.35;40.92;;;5.90;99.90;;;;;;5036366;28;20098;-81
2023/12/05 01:52:52;;;;;;;60.97;41.65;;;5.90;99.90;;;;;;5041947;28;20450;-82
2023/12/05 01:55:20;;;;;;;55.88;39.38;;;5.90;99.90;;;;;;5035931;28;20037;-81
2023/12/05 01:57:48;;;;;;;54.38;38.83;;;5.90;99.90;;;;;;5042655;28;20024;-81
2023/12/05 02:00:15;;;;;;;56.53;36.75;;;5.90;99.90;;;;;;5041507;28;20072;-80
2023/12/05 02:02:41;;;;;;;55.60;37.40;;;5.90;99.90;;;;;;5040848;28;20016;-84
2023/12/05 02:05:09;;;;;;;58.30;39.13;;;5.90;99.90;;;;;;5039912;28;20038;-80
2023/12/05 02:07:35;;;;;;;56.08;37.20;;;5.90;99.90;;;;;;5035825;28;20017;-79
2023/12/05 02:10:01;;;;;;;59.28;38.58;;;5.90;99.90;;;;;;5034737;28;20383;-81
2023/12/05 02:12:27;;;;;;;57.47;37.63;;;5.90;99.90;;;;;;5035441;28;20040;-80
2023/12/05 02:14:53;;;;;;;58.47;38.42;;;5.90;99.90;;;;;;5037879;28;20025;-79
2023/12/05 02:17:29;;;;;;;56.47;37.42;;;6.00;99.90;;;;;;5030147;28;20025;-79
2023/12/05 02:20:00;;;;;;;54.58;36.92;;;5.90;99.90;;;;;;5038102;28;20033;-80
2023/12/05 02:23:01;;;;;;;58.22;38.03;;;5.90;99.90;;;;;;5032876;28;20017;-79
2023/12/05 02:26:06;;;;;;;53.85;36.85;;;5.90;99.90;;;;;;5021408;28;20137;-79
2023/12/05 02:28:33;;;;;;;52.92;35.50;;;6.00;99.90;;;;;;5032429;28;20232;-82
2023/12/05 02:30:58;;;;;;;55.08;37.35;;;5.90;99.90;;;;;;5034033;28;20083;-79
2023/12/05 02:33:24;;;;;;;53.63;36.55;;;5.90;99.90;;;;;;5038049;28;20493;-83
2023/12/05 02:36:15;;;;;;;53.22;35.97;;;5.90;99.90;;;;;;5035781;28;20370;-81
2023/12/05 02:38:55;;;;;;;53.45;37.22;;;5.90;99.90;;;;;;5036670;28;20112;-80
2023/12/05 02:41:24;;;;;;;58.38;37.83;;;6.00;99.90;;;;;;5035440;28;20040;-80
2023/12/05 02:43:58;;;;;;;55.25;39.25;;;6.00;99.90;;;;;;5039080;28;20139;-80
2023/12/05 02:46:24;;;;;;;56.38;38.22;;;5.90;99.90;;;;;;5030523;28;20454;-80
2023/12/05 02:48:52;;;;;;;55.17;38.03;;;5.90;99.90;;;;;;5034208;28;20057;-79
2023/12/05 02:51:17;;;;;;;58.40;39.70;;;5.80;99.90;;;;;;5031367;28;20041;-79
2023/12/05 02:53:43;;;;;;;56.63;38.90;;;5.80;99.90;;;;;;5033568;28;20416;-82
2023/12/05 02:56:09;;;;;;;58.40;38.92;;;5.80;99.90;;;;;;5034605;28;20128;-80
2023/12/05 02:58:35;;;;;;;58.45;38.42;;;5.90;99.90;;;;;;5036608;28;20935;-79
2023/12/05 03:01:01;;;;;;;59.50;38.88;;;5.80;99.90;;;;;;5034323;28;20037;-82
2023/12/05 03:03:27;;;;;;;61.03;40.78;;;5.80;99.90;;;;;;5039805;28;20179;-80
2023/12/05 03:05:53;;;;;;;61.50;41.67;;;5.80;99.90;;;;;;5031740;28;20148;-79
2023/12/05 03:08:18;;;;;;;61.75;39.88;;;5.70;99.90;;;;;;5029016;28;20366;-80
2023/12/05 03:10:44;;;;;;;61.78;41.22;;;5.80;99.90;;;;;;5030426;28;20045;-80
2023/12/05 03:13:09;;;;;;;62.63;41.17;;;5.70;99.90;;;;;;5030117;28;20017;-82
2023/12/05 03:15:35;;;;;;;58.28;39.50;;;5.70;99.90;;;;;;5040627;28;20081;-80
2023/12/05 03:18:00;;;;;;;65.68;41.22;;;5.70;99.90;;;;;;5036236;28;20027;-81
2023/12/05 03:20:26;;;;;;;61.38;41.25;;;5.70;99.90;;;;;;5039734;28;20032;-81
2023/12/05 03:22:52;;;;;;;64.93;40.30;;;5.70;99.90;;;;;;5039976;28;20039;-80
2023/12/05 03:25:17;;;;;;;64.45;40.97;;;5.70;99.90;;;;;;5038354;28;20121;-84
2023/12/05 03:27:43;;;;;;;66.13;41.63;;;5.70;99.90;;;;;;5030393;28;20511;-80
2023/12/05 03:30:09;;;;;;;63.92;41.47;;;5.70;99.90;;;;;;5038063;28;20152;-79
2023/12/05 03:32:35;;;;;;;62.35;41.40;;;5.70;99.90;;;;;;5034550;28;20025;-83
2023/12/05 03:35:00;;;;;;;64.13;41.00;;;5.70;99.90;;;;;;5028640;28;20055;-79
2023/12/05 03:37:26;;;;;;;64.30;41.78;;;5.70;99.90;;;;;;5035267;28;20021;-79
2023/12/05 03:39:52;;;;;;;68.95;43.70;;;5.70;99.90;;;;;;5030332;28;20486;-84
2023/12/05 03:42:17;;;;;;;74.80;46.40;;;5.70;99.90;;;;;;5035649;28;20032;-80
2023/12/05 03:44:43;;;;;;;75.13;44.75;;;5.70;99.90;;;;;;5025430;28;20030;-82
2023/12/05 03:47:08;;;;;;;76.28;45.20;;;5.60;99.90;;;;;;5034812;28;20017;-82
2023/12/05 03:49:34;;;;;;;80.95;46.55;;;5.60;99.90;;;;;;5029489;28;20033;-79
2023/12/05 03:52:01;;;;;;;81.93;47.55;;;5.60;99.90;;;;;;5034754;28;20019;-81
2023/12/05 03:54:27;;;;;;;80.15;46.15;;;5.60;99.90;;;;;;5040123;28;20453;-79
2023/12/05 03:56:53;;;;;;;80.97;46.75;;;5.60;99.90;;;;;;5037400;28;20013;-80
2023/12/05 03:59:18;;;;;;;79.10;44.92;;;5.50;99.90;;;;;;5032792;28;20338;-80
2023/12/05 04:01:44;;;;;;;85.38;46.40;;;5.50;99.90;;;;;;5038181;28;20059;-79
2023/12/05 04:04:10;;;;;;;78.20;45.30;;;5.50;99.90;;;;;;5041729;28;20063;-83
2023/12/05 04:06:35;;;;;;;77.30;44.05;;;5.40;99.90;;;;;;5038131;28;20048;-83
2023/12/05 04:09:03;;;;;;;80.80;47.58;;;5.40;99.90;;;;;;5035414;28;20028;-80
2023/12/05 04:11:31;;;;;;;88.75;46.35;;;5.40;99.90;;;;;;5038411;28;20129;-85
2023/12/05 04:13:58;;;;;;;86.35;46.58;;;5.40;99.90;;;;;;5041763;28;20493;-80
2023/12/05 04:16:24;;;;;;;89.03;48.35;;;5.40;99.90;;;;;;5036416;28;20033;-84
2023/12/05 04:18:50;;;;;;;95.85;49.50;;;5.30;99.90;;;;;;5041657;28;20453;-81
2023/12/05 04:21:18;;;;;;;101.82;51.20;;;5.30;99.80;;;;;;5044465;28;20032;-80
2023/12/05 04:23:44;;;;;;;101.20;50.60;;;5.20;99.80;;;;;;5041528;28;20035;-79
2023/12/05 04:26:19;;;;;;;109.13;50.83;;;5.20;99.90;;;;;;5034892;28;20454;-81
2023/12/05 04:28:46;;;;;;;104.68;51.53;;;5.20;99.90;;;;;;5045123;28;20021;-79
2023/12/05 04:31:12;;;;;;;114.07;51.67;;;5.20;99.90;;;;;;5039116;28;20183;-81
2023/12/05 04:33:42;;;;;;;109.80;52.55;;;5.20;99.90;;;;;;5036913;28;20014;-80
2023/12/05 04:36:08;;;;;;;101.32;52.63;;;5.10;99.80;;;;;;5039323;28;20025;-82
2023/12/05 04:38:38;;;;;;;106.00;52.60;;;5.10;99.80;;;;;;5035435;28;20116;-81
2023/12/05 04:41:04;;;;;;;102.30;51.83;;;5.10;99.90;;;;;;5039117;28;20103;-81
2023/12/05 04:43:33;;;;;;;100.05;51.38;;;5.10;99.90;;;;;;5040949;28;20426;-81
2023/12/05 04:45:58;;;;;;;106.35;50.78;;;5.00;99.80;;;;;;5036695;28;20029;-82
2023/12/05 04:48:24;;;;;;;102.35;53.80;;;5.10;99.90;;;;;;5038102;28;20029;-80
2023/12/05 04:50:50;;;;;;;100.93;53.40;;;5.10;99.90;;;;;;5041369;28;20429;-81
2023/12/05 04:53:15;;;;;;;103.65;52.20;;;5.10;99.90;;;;;;5052205;28;20060;-81
2023/12/05 04:55:41;;;;;;;96.88;50.22;;;5.10;99.90;;;;;;5056245;28;20021;-85
2023/12/05 04:58:07;;;;;;;99.30;50.40;;;5.10;99.80;;;;;;5045753;28;20017;-80
2023/12/05 05:00:34;;;;;;;94.20;50.08;;;5.00;99.80;;;;;;5031430;28;20164;-81
2023/12/05 05:02:59;;;;;;;99.72;51.78;;;5.00;99.80;;;;;;5034059;28;20028;-84
2023/12/05 05:05:25;;;;;;;103.13;52.15;;;5.00;99.70;;;;;;5039420;28;20033;-81
2023/12/05 05:07:51;;;;;;;88.57;50.50;;;5.00;99.70;;;;;;5032361;28;20065;-81
2023/12/05 05:10:16;;;;;;;101.13;52.38;;;4.90;99.70;;;;;;5031067;28;20504;-81
2023/12/05 05:12:42;;;;;;;101.40;51.63;;;4.80;99.70;;;;;;5030148;28;20029;-82
2023/12/05 05:15:09;;;;;;;97.05;52.00;;;4.90;99.70;;;;;;5030151;28;20025;-83
2023/12/05 05:17:34;;;;;;;98.28;51.20;;;4.80;99.70;;;;;;5052573;28;20052;-83
2023/12/05 05:20:00;;;;;;;95.18;49.72;;;4.80;99.70;;;;;;5058722;28;20085;-84
2023/12/05 05:22:26;;;;;;;92.35;49.60;;;4.80;99.80;;;;;;5057007;28;20051;-84
2023/12/05 05:24:52;;;;;;;95.18;48.80;;;4.80;99.80;;;;;;5050002;28;20465;-80
2023/12/05 05:27:17;;;;;;;95.07;51.50;;;4.80;99.80;;;;;;5035031;28;20017;-81
2023/12/05 05:29:43;;;;;;;92.53;49.35;;;4.80;99.80;;;;;;5040044;28;20036;-81
2023/12/05 05:32:09;;;;;;;89.53;48.47;;;4.90;99.90;;;;;;5042867;28;20536;-80
2023/12/05 05:34:35;;;;;;;91.38;49.88;;;4.90;99.80;;;;;;5029275;28;20036;-85
2023/12/05 05:37:00;;;;;;;91.35;47.95;;;4.90;99.80;;;;;;5036336;28;20032;-79
2023/12/05 05:39:26;;;;;;;89.18;46.78;;;4.90;99.70;;;;;;5036052;28;20037;-80
2023/12/05 05:41:52;;;;;;;80.60;44.88;;;4.90;99.80;;;;;;5038438;28;20045;-85
2023/12/05 05:44:18;;;;;;;77.38;43.75;;;4.90;99.80;;;;;;5028479;28;20079;-81
2023/12/05 05:46:44;;;;;;;76.30;42.30;;;4.90;99.80;;;;;;5038313;28;20029;-84
2023/12/05 05:49:09;;;;;;;76.90;43.20;;;4.90;99.80;;;;;;5034321;28;20519;-82
2023/12/05 05:51:35;;;;;;;71.15;41.90;;;4.90;99.70;;;;;;5031302;28;20828;-82
2023/12/05 05:54:00;;;;;;;76.13;43.38;;;4.90;99.70;;;;;;5031980;28;20021;-83
2023/12/05 05:56:26;;;;;;;74.57;44.13;;;4.90;99.70;;;;;;5032997;28;20405;-80
2023/12/05 05:58:52;;;;;;;68.30;42.80;;;4.90;99.70;;;;;;5036312;28;20162;-83
2023/12/05 06:01:17;;;;;;;64.32;39.90;;;4.80;99.60;;;;;;5034299;28;20125;-80
2023/12/05 06:03:44;;;;;;;66.35;43.33;;;4.80;99.60;;;;;;5044050;28;20041;-79
2023/12/05 06:06:09;;;;;;;62.38;38.53;;;4.80;99.60;;;;;;5039051;28;20040;-82
2023/12/05 06:08:35;;;;;;;62.58;40.25;;;4.70;99.50;;;;;;5034564;28;20108;-84
2023/12/05 06:11:01;;;;;;;65.60;40.83;;;4.70;99.50;;;;;;5035140;28;20068;-80
2023/12/05 06:13:27;;;;;;;72.70;42.38;;;4.70;99.50;;;;;;5032430;28;20143;-79
2023/12/05 06:15:52;;;;;;;69.93;43.13;;;4.70;99.60;;;;;;5041189;28;20029;-79
2023/12/05 06:18:18;;;;;;;70.80;41.80;;;4.60;99.60;;;;;;5036248;28;20102;-83
2023/12/05 06:20:44;;;;;;;71.22;41.97;;;4.70;99.60;;;;;;5037473;28;20040;-79
2023/12/05 06:23:10;;;;;;;69.97;41.78;;;4.60;99.60;;;;;;5037467;28;20048;-81
2023/12/05 06:25:36;;;;;;;68.18;41.63;;;4.60;99.60;;;;;;5040160;28;20045;-84
2023/12/05 06:28:02;;;;;;;72.47;43.08;;;4.60;99.60;;;;;;5038437;28;20099;-81
2023/12/05 06:30:28;;;;;;;70.00;41.33;;;4.60;99.60;;;;;;5040710;28;20134;-80
2023/12/05 06:32:53;;;;;;;65.85;42.92;;;4.60;99.60;;;;;;5041452;28;20490;-79
2023/12/05 06:35:19;;;;;;;64.18;39.17;;;4.70;99.60;;;;;;5042267;28;20040;-80
2023/12/05 06:37:44;;;;;;;66.90;41.25;;;4.60;99.50;;;;;;5038734;28;20030;-83
2023/12/05 06:40:10;;;;;;;70.53;42.10;;;4.60;99.50;;;;;;5038722;28;20065;-80
2023/12/05 06:42:37;;;;;;;74.30;43.25;;;4.60;99.50;;;;;;5037045;28;20021;-79
2023/12/05 06:45:03;;;;;;;69.78;42.20;;;4.60;99.50;;;;;;5042503;28;20060;-84
2023/12/05 06:47:30;;;;;;;71.03;41.80;;;4.60;99.50;;;;;;5037619;28;20032;-78
2023/12/05 06:49:59;;;;;;;75.18;43.80;;;4.60;99.50;;;;;;5037955;28;20477;-80
2023/12/05 06:52:25;;;;;;;80.63;44.55;;;4.60;99.50;;;;;;5035855;28;20116;-83
2023/12/05 06:54:51;;;;;;;80.78;44.90;;;4.60;99.60;;;;;;5041256;28;20162;-82
2023/12/05 06:57:17;;;;;;;82.30;45.33;;;4.60;99.50;;;;;;5036615;28;20025;-81
2023/12/05 06:59:42;;;;;;;87.43;46.95;;;4.60;99.50;;;;;;5037036;28;20413;-82
2023/12/05 07:02:08;;;;;;;94.18;46.47;;;4.60;99.50;;;;;;5035790;28;20017;-80
2023/12/05 07:04:34;;;;;;;84.22;43.30;;;4.60;99.60;;;;;;5038827;28;20033;-86
2023/12/05 07:07:00;;;;;;;79.93;41.97;;;4.60;99.50;;;;;;5041720;28;20433;-82
2023/12/05 07:09:26;;;;;;;79.05;42.47;;;4.60;99.50;;;;;;5039948;28;20029;-81
2023/12/05 07:11:51;;;;;;;68.47;38.67;;;4.60;99.60;;;;;;5038109;28;20030;-86
2023/12/05 07:14:17;;;;;;;68.05;37.20;;;4.60;99.60;;;;;;5038306;28;20029;-81
2023/12/05 07:16:42;;;;;;;64.63;34.80;;;4.60;99.50;;;;;;5040655;28;20485;-85
2023/12/05 07:19:08;;;;;;;66.90;35.03;;;4.60;99.60;;;;;;5041678;28;20033;-84
2023/12/05 07:21:34;;;;;;;68.57;37.35;;;4.60;99.60;;;;;;5035496;28;20040;-84
2023/12/05 07:23:59;;;;;;;69.93;37.50;;;4.60;99.50;;;;;;5040647;28;20024;-77
2023/12/05 07:26:25;;;;;;;75.55;39.85;;;4.60;99.50;;;;;;5038936;28;20033;-75
2023/12/05 07:28:50;;;;;;;72.00;38.38;;;4.60;99.50;;;;;;5041933;28;20409;-79
2023/12/05 07:31:17;;;;;;;83.65;41.40;;;4.70;99.50;;;;;;5038143;28;20382;-76
2023/12/05 07:33:43;;;;;;;100.22;43.33;;;4.60;99.50;;;;;;5037750;28;20040;-77
2023/12/05 07:36:09;;;;;;;87.22;44.38;;;4.60;99.50;;;;;;5032809;28;20042;-78
2023/12/05 07:38:35;;;;;;;88.10;42.28;;;4.60;99.50;;;;;;5034723;28;20569;-76
2023/12/05 07:41:00;;;;;;;94.63;43.70;;;4.70;99.60;;;;;;5038407;28;20124;-76
2023/12/05 07:43:26;;;;;;;87.78;43.85;;;4.70;99.60;;;;;;5039636;28;20564;-79
2023/12/05 07:45:51;;;;;;;86.18;42.83;;;4.70;99.60;;;;;;5041041;28;20025;-76
2023/12/05 07:48:17;;;;;;;80.20;41.35;;;4.70;99.60;;;;;;5042608;28;20037;-74
2023/12/05 07:50:43;;;;;;;71.82;38.25;;;4.70;99.60;;;;;;5042427;28;20473;-77
2023/12/05 07:53:09;;;;;;;67.32;37.45;;;4.70;99.50;;;;;;5034754;28;20036;-75
2023/12/05 07:55:35;;;;;;;69.50;36.42;;;4.70;99.50;;;;;;5043432;28;20041;-76
2023/12/05 07:58:00;;;;;;;59.30;34.88;;;4.80;99.50;;;;;;5042626;28;20033;-74
2023/12/05 08:00:26;;;;;;;56.20;32.90;;;4.80;99.50;;;;;;5034992;28;20383;-73
2023/12/05 08:02:52;;;;;;;61.15;33.10;;;4.70;99.40;;;;;;5039801;28;20017;-75
2023/12/05 08:05:17;;;;;;;54.80;33.30;;;4.80;99.50;;;;;;5039660;28;20032;-75
2023/12/05 08:07:43;;;;;;;57.40;32.10;;;4.80;99.50;;;;;;5035092;28;20094;-74
2023/12/05 08:10:10;;;;;;;59.40;34.72;;;4.80;99.50;;;;;;5040928;28;20149;-73
2023/12/05 08:12:36;;;;;;;56.38;31.10;;;4.70;99.30;;;;;;5038613;28;20494;-72
2023/12/05 08:15:03;;;;;;;60.95;33.80;;;4.70;99.40;;;;;;5031408;28;20108;-75
2023/12/05 08:17:29;;;;;;;59.05;33.30;;;4.80;99.40;;;;;;5040884;28;20398;-75
2023/12/05 08:19:55;;;;;;;64.53;32.63;;;4.70;99.30;;;;;;5040785;28;20025;-73
2023/12/05 08:22:21;;;;;;;60.08;32.88;;;4.80;99.40;;;;;;5041448;28;20025;-75
2023/12/05 08:24:48;;;;;;;68.05;34.78;;;4.80;99.40;;;;;;5043695;28;20052;-72
2023/12/05 08:27:14;;;;;;;68.32;34.20;;;4.70;99.30;;;;;;5031461;28;20459;-73
2023/12/05 08:29:39;;;;;;;67.78;34.97;;;4.80;99.40;;;;;;5041318;28;20325;-74
2023/12/05 08:32:07;;;;;;;71.80;36.40;;;4.80;99.30;;;;;;5037459;28;20033;-74
2023/12/05 08:34:34;;;;;;;71.55;35.22;;;4.80;99.30;;;;;;5038153;28;20024;-76
2023/12/05 08:37:00;;;;;;;72.03;36.92;;;4.80;99.30;;;;;;5043586;28;20538;-74
2023/12/05 08:39:26;;;;;;;69.18;35.25;;;4.80;99.30;;;;;;5036976;28;20064;-75
2023/12/05 08:41:52;;;;;;;72.63;36.17;;;4.80;99.30;;;;;;5038610;28;20060;-78
2023/12/05 08:44:19;;;;;;;77.88;37.70;;;4.80;99.40;;;;;;5043201;28;20021;-76
2023/12/05 08:46:46;;;;;;;91.35;38.25;;;4.80;99.30;;;;;;5037642;28;20045;-74
2023/12/05 08:49:12;;;;;;;81.93;38.90;;;4.80;99.30;;;;;;5028991;28;20021;-77
2023/12/05 08:51:38;;;;;;;81.93;39.20;;;4.80;99.40;;;;;;5039365;28;20055;-76
2023/12/05 08:54:04;;;;;;;81.78;38.53;;;4.80;99.30;;;;;;5038872;28;20033;-75
2023/12/05 08:56:29;;;;;;;92.22;40.60;;;4.80;99.40;;;;;;5030848;28;20028;-75
2023/12/05 08:58:55;;;;;;;92.88;41.35;;;4.90;99.40;;;;;;5034053;28;20025;-75
2023/12/05 09:01:23;;;;;;;95.65;39.97;;;4.90;99.40;;;;;;5034728;28;20121;-76
2023/12/05 09:03:49;;;;;;;89.10;38.47;;;4.90;99.40;;;;;;5040194;28;20016;-76
2023/12/05 09:06:15;;;;;;;91.82;38.55;;;4.90;99.40;;;;;;5041255;28;20119;-75
2023/12/05 09:08:40;;;;;;;97.97;40.80;;;4.90;99.40;;;;;;5040423;28;20383;-75
2023/12/05 09:11:06;;;;;;;96.88;41.40;;;4.90;99.40;;;;;;5043579;28;20486;-74
2023/12/05 09:13:32;;;;;;;93.72;40.65;;;4.90;99.40;;;;;;5034855;28;20608;-76
2023/12/05 09:15:58;;;;;;;96.10;40.63;;;5.00;99.50;;;;;;5035141;28;20124;-74
2023/12/05 09:18:23;;;;;;;86.30;39.38;;;4.90;99.40;;;;;;5039948;28;20032;-77
2023/12/05 09:20:49;;;;;;;102.97;43.33;;;5.00;99.50;;;;;;5041701;28;20041;-78
2023/12/05 09:23:15;;;;;;;94.32;40.60;;;5.00;99.50;;;;;;5039696;28;20040;-76
2023/12/05 09:25:41;;;;;;;99.00;40.97;;;5.10;99.50;;;;;;5033036;28;20421;-77
2023/12/05 09:28:07;;;;;;;92.38;40.13;;;5.10;99.40;;;;;;5041357;28;20487;-78
2023/12/05 09:30:33;;;;;;;90.88;39.83;;;5.10;99.40;;;;;;5039664;28;20049;-74
2023/12/05 09:32:59;;;;;;;91.80;41.42;;;5.10;99.40;;;;;;5039313;28;20066;-75
2023/12/05 09:35:29;;;;;;;89.93;41.03;;;5.10;99.50;;;;;;5042796;28;20025;-75
2023/12/05 09:37:56;;;;;;;93.47;41.80;;;5.10;99.40;;;;;;5037058;28;20488;-74
2023/12/05 09:40:22;;;;;;;90.60;41.63;;;5.20;99.50;;;;;;5039443;28;20683;-73
2023/12/05 09:42:49;;;;;;;85.43;39.45;;;5.10;99.40;;;;;;5039628;28;20064;-75
2023/12/05 09:45:18;;;;;;;90.88;40.67;;;5.20;99.50;;;;;;5039650;28;20044;-72
2023/12/05 09:47:46;;;;;;;85.45;40.03;;;5.30;99.50;;;;;;5037779;28;20045;-76
2023/12/05 09:50:12;;;;;;;85.78;39.72;;;5.30;99.40;;;;;;5041077;28;20460;-74
2023/12/05 09:52:38;;;;;;;90.80;41.10;;;5.30;99.50;;;;;;5034310;28;20032;-76
2023/12/05 09:55:06;;;;;;;90.10;43.83;;;5.30;99.40;;;;;;5032719;28;20237;-72
2023/12/05 09:57:36;;;;;;;91.25;42.70;;;5.40;99.50;;;;;;5039585;28;20029;-74
2023/12/05 10:00:02;;;;;;;90.28;42.13;;;5.40;99.40;;;;;;5038680;28;20064;-73
2023/12/05 10:02:29;;;;;;;89.95;42.92;;;5.40;99.50;;;;;;5036510;28;20061;-72
2023/12/05 10:05:00;;;;;;;87.70;43.40;;;5.40;99.40;;;;;;5034430;28;20033;-75
2023/12/05 10:07:30;;;;;;;91.65;42.97;;;5.40;99.40;;;;;;5041431;28;20036;-75
2023/12/05 10:09:57;;;;;;;85.25;42.10;;;5.40;99.40;;;;;;5039437;28;20049;-72
2023/12/05 10:12:23;;;;;;;86.78;41.00;;;5.40;99.40;;;;;;5037405;28;20490;-72
2023/12/05 10:14:51;;;;;;;93.78;44.53;;;5.40;99.30;;;;;;5040998;28;20025;-72
2023/12/05 10:17:16;;;;;;;89.72;42.08;;;5.40;99.30;;;;;;5022294;28;20419;-73
2023/12/05 10:19:42;;;;;;;85.55;40.95;;;5.40;99.40;;;;;;5037666;28;20086;-73
2023/12/05 10:22:09;;;;;;;85.93;41.88;;;5.50;99.30;;;;;;5038139;28;20028;-72
2023/12/05 10:24:45;;;;;;;87.10;43.03;;;5.50;99.40;;;;;;5032564;28;20540;-72
2023/12/05 10:27:11;;;;;;;78.25;40.00;;;5.50;99.30;;;;;;5037527;28;20032;-75
2023/12/05 10:29:39;;;;;;;81.70;40.63;;;5.50;99.40;;;;;;5048070;28;20489;-74
2023/12/05 10:32:11;;;;;;;80.78;41.75;;;5.60;99.40;;;;;;5050169;28;20045;-73
2023/12/05 10:34:56;;;;;;;84.20;43.13;;;5.60;99.40;;;;;;5052828;28;20025;-72
2023/12/05 10:37:28;;;;;;;78.53;40.42;;;5.70;99.40;;;;;;5036166;28;20095;-73
2023/12/05 10:39:56;;;;;;;77.38;40.88;;;5.70;99.40;;;;;;5036874;28;20064;-74
2023/12/05 10:42:27;;;;;;;74.35;39.88;;;5.70;99.30;;;;;;5028661;28;20021;-73
2023/12/05 10:44:53;;;;;;;74.45;39.70;;;5.70;99.20;;;;;;5024050;28;20029;-75
2023/12/05 10:47:19;;;;;;;71.90;38.47;;;5.70;99.30;;;;;;5037929;28;20088;-73
2023/12/05 10:49:45;;;;;;;73.45;41.13;;;5.80;99.20;;;;;;5033176;28;20040;-73
2023/12/05 10:52:14;;;;;;;69.57;38.17;;;5.80;99.20;;;;;;5036759;28;20021;-73
2023/12/05 10:54:41;;;;;;;70.40;37.15;;;5.80;99.20;;;;;;5029143;28;20071;-71
2023/12/05 10:57:09;;;;;;;70.82;39.97;;;5.80;99.20;;;;;;5037597;28;20070;-72
2023/12/05 10:59:37;;;;;;;66.82;37.17;;;5.80;99.10;;;;;;5039635;28;20025;-74
2023/12/05 11:02:13;;;;;;;68.35;37.88;;;5.80;99.20;;;;;;5034866;28;20239;-73
2023/12/05 11:04:43;;;;;;;64.30;35.75;;;5.80;99.20;;;;;;5034225;28;20013;-72
2023/12/05 11:07:10;;;;;;;56.20;32.60;;;5.90;99.20;;;;;;5025408;28;20017;-73
2023/12/05 11:09:36;;;;;;;56.30;33.38;;;5.90;99.10;;;;;;5035418;28;20148;-74
2023/12/05 11:12:06;;;;;;;62.13;34.58;;;5.90;99.10;;;;;;5037118;28;20736;-72
2023/12/05 11:14:42;;;;;;;55.55;33.85;;;5.90;99.00;;;;;;5035714;28;20033;-72
2023/12/05 11:17:17;;;;;;;58.08;33.75;;;6.00;99.00;;;;;;5035166;28;20052;-73
2023/12/05 11:19:56;;;;;;;53.13;33.03;;;6.00;99.10;;;;;;5040034;28;20025;-72
2023/12/05 11:22:41;;;;;;;52.67;31.85;;;6.00;99.10;;;;;;5041356;28;20561;-73
2023/12/05 11:25:44;;;;;;;51.95;32.25;;;6.00;99.00;;;;;;5037876;28;20045;-73
2023/12/05 11:28:31;;;;;;;49.75;31.95;;;6.10;99.00;;;;;;5033697;28;20033;-72
2023/12/05 11:31:11;;;;;;;51.88;32.65;;;6.20;99.00;;;;;;5027176;28;20262;-72
2023/12/05 11:34:05;;;;;;;47.08;29.85;;;6.10;99.00;;;;;;5022591;28;20033;-72
2023/12/05 11:37:12;;;;;;;47.78;30.13;;;6.10;98.90;;;;;;5024130;28;20406;-73
2023/12/05 11:39:39;;;;;;;46.58;29.73;;;6.10;98.90;;;;;;5021808;28;20045;-76
2023/12/05 11:42:19;;;;;;;42.85;28.88;;;6.10;98.90;;;;;;5031052;28;20421;-73
2023/12/05 11:44:45;;;;;;;42.42;29.60;;;6.10;98.90;;;;;;5029567;28;20224;-72
2023/12/05 11:47:16;;;;;;;40.63;28.75;;;6.10;98.90;;;;;;5029420;28;20377;-75
2023/12/05 11:50:00;;;;;;;36.38;26.30;;;6.10;98.90;;;;;;5030169;28;20017;-74
2023/12/05 11:52:39;;;;;;;37.53;25.93;;;6.10;98.90;;;;;;5031071;28;20063;-73
2023/12/05 11:55:05;;;;;;;33.63;24.40;;;6.10;98.90;;;;;;5025586;28;20139;-73
2023/12/05 11:57:33;;;;;;;32.95;22.77;;;6.10;98.90;;;;;;5029825;28;20386;-73
2023/12/05 11:59:59;;;;;;;32.80;23.25;;;6.00;98.90;;;;;;5026284;28;20386;-74
2023/12/05 12:02:31;;;;;;;35.15;22.92;;;6.10;99.00;;;;;;5034716;28;20021;-74
2023/12/05 12:05:16;;;;;;;35.65;23.45;;;6.00;98.90;;;;;;5030029;28;20041;-72
2023/12/05 12:07:56;;;;;;;32.58;22.52;;;6.00;99.00;;;;;;5026608;28;20021;-72
2023/12/05 12:10:23;;;;;;;33.88;24.13;;;6.00;99.00;;;;;;5033851;28;20423;-74
2023/12/05 12:12:50;;;;;;;30.58;22.70;;;6.00;99.00;;;;;;5032450;28;20020;-73
2023/12/05 12:15:16;;;;;;;32.15;22.98;;;6.10;98.90;;;;;;5035088;28;20112;-74
2023/12/05 12:17:45;;;;;;;32.67;23.15;;;6.10;99.00;;;;;;5036686;28;20552;-75
2023/12/05 12:20:16;;;;;;;34.00;23.33;;;6.10;99.00;;;;;;5030798;28;20612;-74
2023/12/05 12:22:45;;;;;;;33.47;23.67;;;6.10;98.90;;;;;;5030030;28;20017;-74
2023/12/05 12:25:11;;;;;;;32.40;22.58;;;6.10;98.90;;;;;;5040689;28;20504;-75
2023/12/05 12:27:39;;;;;;;34.90;24.15;;;6.10;98.90;;;;;;5038447;28;20040;-72
2023/12/05 12:30:07;;;;;;;34.45;24.35;;;6.10;98.80;;;;;;5035782;28;20440;-74
2023/12/05 12:32:35;;;;;;;36.00;25.05;;;6.10;98.80;;;;;;5042241;28;20341;-73
2023/12/05 12:35:01;;;;;;;37.03;25.90;;;6.00;98.80;;;;;;5044030;28;20025;-72
2023/12/05 12:37:28;;;;;;;34.85;25.08;;;6.10;98.80;;;;;;5034548;28;20033;-73